Time;durP1;ratioP1;P1;durP2;ratioP2;P2;SDS_P1;SDS_P2;PMS_P1;PMS_P2;Temp;Humidity;BMP_temperature;BMP_pressure;BME280_temperature;BME280_humidity;BME280_pressure;Samples;Min_cycle;Max_cycle;Signal;HPM_P1;HPM_P2
2022/10/11 00:01:49;;;;;;;2.72;1.90;;;12.00;99.90;;;;;;4153304;28;20531;-67
2022/10/11 00:03:49;;;;;;;3.83;1.73;;;12.00;99.90;;;;;;4153664;28;20472;-67
2022/10/11 00:05:52;;;;;;;4.68;1.60;;;12.00;99.90;;;;;;4152187;28;20076;-68
2022/10/11 00:07:53;;;;;;;;;;;12.00;99.90;;;;;;4156397;28;20033;-68
2022/10/11 00:09:53;;;;;;;3.22;1.50;;;12.00;99.90;;;;;;4150698;28;19913;-68
2022/10/11 00:11:55;;;;;;;2.90;1.50;;;11.90;99.90;;;;;;4153236;28;20037;-68
2022/10/11 00:13:55;;;;;;;4.50;1.60;;;12.00;99.90;;;;;;4153875;28;20025;-68
2022/10/11 00:15:56;;;;;;;2.30;1.58;;;11.90;99.90;;;;;;4153739;28;20033;-68
2022/10/11 00:17:57;;;;;;;4.22;1.45;;;11.90;99.90;;;;;;4154601;28;20556;-68
2022/10/11 00:19:58;;;;;;;2.72;1.83;;;11.90;99.90;;;;;;4154502;28;20134;-68
2022/10/11 00:21:58;;;;;;;2.65;1.63;;;11.90;99.90;;;;;;4166164;28;20090;-67
2022/10/11 00:23:59;;;;;;;3.28;1.77;;;11.90;99.90;;;;;;4171846;28;20068;-68
2022/10/11 00:26:03;;;;;;;3.40;1.77;;;11.90;99.90;;;;;;4177618;28;20040;-67
2022/10/11 00:28:04;;;;;;;5.88;2.00;;;11.90;99.90;;;;;;4189148;28;20109;-67
2022/10/11 00:30:06;;;;;;;4.72;1.80;;;11.90;99.90;;;;;;4184131;28;20033;-69
2022/10/11 00:32:07;;;;;;;3.03;1.90;;;11.90;99.90;;;;;;4183782;28;20078;-67
2022/10/11 00:34:10;;;;;;;5.82;1.92;;;11.90;99.90;;;;;;4189033;28;20032;-67
2022/10/11 00:36:13;;;;;;;4.97;2.20;;;11.90;99.90;;;;;;4184532;28;20035;-67
2022/10/11 00:38:15;;;;;;;3.40;1.63;;;11.90;99.90;;;;;;4187157;28;20028;-68
2022/10/11 00:40:18;;;;;;;7.18;2.72;;;11.90;99.90;;;;;;4181239;28;20085;-68
2022/10/11 00:42:19;;;;;;;4.05;2.10;;;11.90;99.90;;;;;;4165565;28;20034;-67
2022/10/11 00:44:25;;;;;;;3.72;1.58;;;11.90;99.90;;;;;;4175822;28;20033;-67
2022/10/11 00:46:29;;;;;;;6.82;2.33;;;11.90;99.90;;;;;;4171070;28;20037;-68
2022/10/11 00:48:40;;;;;;;2.42;1.77;;;11.90;99.90;;;;;;4169826;28;20032;-67
2022/10/11 00:50:41;;;;;;;5.60;2.20;;;11.90;99.90;;;;;;4161784;28;20038;-67
2022/10/11 00:52:48;;;;;;;4.47;1.90;;;11.90;99.90;;;;;;4173514;28;20025;-67
2022/10/11 00:54:49;;;;;;;3.20;1.95;;;11.80;99.90;;;;;;4170468;28;20029;-67
2022/10/11 00:56:59;;;;;;;6.30;2.30;;;11.80;99.90;;;;;;4173164;28;20370;-68
2022/10/11 00:59:07;;;;;;;3.90;2.30;;;11.80;99.90;;;;;;4169023;28;20121;-67
2022/10/11 01:01:08;;;;;;;4.75;2.20;;;11.80;99.90;;;;;;4167218;28;20032;-67
2022/10/11 01:03:09;;;;;;;4.88;2.28;;;11.80;99.90;;;;;;4171964;28;20042;-67
2022/10/11 01:05:14;;;;;;;7.93;2.83;;;11.80;99.90;;;;;;4170807;28;20434;-69
2022/10/11 01:07:17;;;;;;;4.63;2.08;;;11.80;99.90;;;;;;4166676;28;20033;-67
2022/10/11 01:09:19;;;;;;;6.20;2.50;;;11.80;99.90;;;;;;4168576;28;20055;-67
2022/10/11 01:11:24;;;;;;;7.70;2.50;;;11.80;99.90;;;;;;4168089;28;20040;-67
2022/10/11 01:13:31;;;;;;;4.25;2.17;;;11.80;99.90;;;;;;4173572;28;20042;-67
2022/10/11 01:16:00;;;;;;;3.85;2.30;;;11.70;99.90;;;;;;4168085;28;20516;-68
2022/10/11 01:18:17;;;;;;;4.20;2.13;;;11.70;99.90;;;;;;4142406;28;20053;-68
2022/10/11 01:20:34;;;;;;;3.85;2.28;;;11.70;99.90;;;;;;4165385;28;20070;-67
2022/10/11 01:23:07;;;;;;;3.55;2.00;;;11.60;99.90;;;;;;4152729;28;20045;-67
2022/10/11 01:25:26;;;;;;;4.68;2.30;;;11.60;99.90;;;;;;4127915;28;20040;-68
2022/10/11 01:27:41;;;;;;;6.43;2.75;;;11.60;99.90;;;;;;4157788;28;20079;-67
2022/10/11 01:30:04;;;;;;;5.22;2.45;;;11.60;99.90;;;;;;4151813;28;20037;-67
2022/10/11 01:32:30;;;;;;;5.32;2.50;;;11.60;99.90;;;;;;4151163;28;20397;-67
2022/10/11 01:34:33;;;;;;;4.30;2.38;;;11.60;99.90;;;;;;4153502;28;20037;-67
2022/10/11 01:37:18;;;;;;;4.72;1.95;;;11.60;99.90;;;;;;4154392;28;20030;-67
2022/10/11 01:39:22;;;;;;;3.05;1.95;;;11.50;99.90;;;;;;4118769;28;20041;-66
2022/10/11 01:41:39;;;;;;;6.90;2.20;;;11.50;99.90;;;;;;4150353;28;20038;-68
2022/10/11 01:43:40;;;;;;;5.82;2.33;;;11.40;99.90;;;;;;4151769;28;20437;-67
2022/10/11 01:45:43;;;;;;;4.07;2.10;;;11.40;99.90;;;;;;4152540;28;20065;-67
2022/10/11 01:47:47;;;;;;;4.47;2.13;;;11.40;99.90;;;;;;4132767;28;20027;-67
2022/10/11 01:49:53;;;;;;;4.57;1.90;;;11.30;99.90;;;;;;4153520;28;20045;-66
2022/10/11 01:51:57;;;;;;;3.80;2.03;;;11.30;99.90;;;;;;4152629;28;20064;-67
2022/10/11 01:54:48;;;;;;;6.15;2.70;;;11.30;99.90;;;;;;4155649;28;20029;-68
2022/10/11 01:57:13;;;;;;;4.95;2.33;;;11.30;99.90;;;;;;4144871;28;20199;-67
2022/10/11 01:59:43;;;;;;;5.55;2.45;;;11.30;99.90;;;;;;4147447;28;20029;-68
2022/10/11 02:02:05;;;;;;;5.60;2.42;;;11.30;99.90;;;;;;4153523;28;20030;-67
2022/10/11 02:04:18;;;;;;;5.47;2.35;;;11.30;99.90;;;;;;4149870;28;20103;-66
2022/10/11 02:06:43;;;;;;;3.92;2.60;;;11.30;99.90;;;;;;4157395;28;20026;-67
2022/10/11 02:09:14;;;;;;;4.50;2.20;;;11.30;99.90;;;;;;4153211;28;20033;-67
2022/10/11 02:11:30;;;;;;;3.97;1.73;;;11.20;99.90;;;;;;4154380;28;20045;-67
2022/10/11 02:13:41;;;;;;;4.43;2.17;;;11.20;99.90;;;;;;4146160;28;20390;-67
2022/10/11 02:15:44;;;;;;;4.75;2.50;;;11.20;99.90;;;;;;4149001;28;20100;-67
2022/10/11 02:17:48;;;;;;;5.05;2.08;;;11.10;99.90;;;;;;4152182;28;20095;-67
2022/10/11 02:19:53;;;;;;;5.13;2.17;;;11.10;99.90;;;;;;4151876;28;20029;-67
2022/10/11 02:22:00;;;;;;;4.18;2.35;;;11.00;99.90;;;;;;4157373;28;20502;-67
2022/10/11 02:24:26;;;;;;;4.90;2.47;;;11.00;99.90;;;;;;4171417;28;20038;-67
2022/10/11 02:26:30;;;;;;;5.78;2.33;;;11.00;99.90;;;;;;4163975;28;20034;-68
2022/10/11 02:28:35;;;;;;;3.08;1.98;;;11.00;99.90;;;;;;4170775;28;20033;-67
2022/10/11 02:30:36;;;;;;;7.20;2.72;;;11.00;99.90;;;;;;4158379;28;20080;-64
2022/10/11 02:32:39;;;;;;;3.97;2.40;;;11.00;99.90;;;;;;4148742;28;20543;-67
2022/10/11 02:34:47;;;;;;;4.43;2.00;;;11.00;99.90;;;;;;4159087;28;20424;-67
2022/10/11 02:37:05;;;;;;;4.72;2.10;;;11.00;99.90;;;;;;4149443;28;20029;-66
2022/10/11 02:39:14;;;;;;;4.45;2.10;;;11.00;99.90;;;;;;4158011;28;20036;-67
2022/10/11 02:41:28;;;;;;;4.82;1.92;;;10.90;99.90;;;;;;4151876;28;21377;-67
2022/10/11 02:43:35;;;;;;;6.53;1.98;;;10.90;99.90;;;;;;4166719;28;20032;-67
2022/10/11 02:45:45;;;;;;;4.05;2.10;;;10.80;99.90;;;;;;4164979;28;20821;-66
2022/10/11 02:47:46;;;;;;;2.70;1.83;;;10.80;99.90;;;;;;4166590;28;20066;-67
2022/10/11 02:49:47;;;;;;;3.70;1.98;;;10.70;99.90;;;;;;4166891;28;20162;-67
2022/10/11 02:51:47;;;;;;;5.10;2.33;;;10.70;99.90;;;;;;4164042;28;20049;-65
2022/10/11 02:53:48;;;;;;;3.13;1.80;;;10.70;99.90;;;;;;4170200;28;20120;-66
2022/10/11 02:55:51;;;;;;;6.97;2.00;;;10.70;99.90;;;;;;4172712;28;20388;-67
2022/10/11 02:57:52;;;;;;;4.40;2.20;;;10.60;99.90;;;;;;4174139;28;20056;-67
2022/10/11 02:59:52;;;;;;;2.65;1.75;;;10.60;99.90;;;;;;4169710;28;20404;-67
2022/10/11 03:01:53;;;;;;;3.35;1.75;;;10.60;99.90;;;;;;4164439;28;20042;-66
2022/10/11 03:03:53;;;;;;;4.07;1.73;;;10.60;99.90;;;;;;4165432;28;20026;-67
2022/10/11 03:05:59;;;;;;;3.05;1.70;;;10.60;99.90;;;;;;4170862;28;20033;-67
2022/10/11 03:07:59;;;;;;;3.75;1.92;;;10.60;99.90;;;;;;4171930;28;20037;-67
2022/10/11 03:10:00;;;;;;;3.03;1.90;;;10.60;99.90;;;;;;4168213;28;20105;-67
2022/10/11 03:12:00;;;;;;;4.72;2.05;;;10.60;99.90;;;;;;4168367;28;20033;-66
2022/10/11 03:14:01;;;;;;;3.13;2.00;;;10.60;99.90;;;;;;4169228;28;20090;-68
2022/10/11 03:16:02;;;;;;;4.97;2.22;;;10.60;99.90;;;;;;4165138;28;20033;-67
2022/10/11 03:18:02;;;;;;;3.40;2.17;;;10.50;99.90;;;;;;4166781;28;20034;-66
2022/10/11 03:20:06;;;;;;;4.25;2.10;;;10.60;99.90;;;;;;4163648;28;20034;-68
2022/10/11 03:22:07;;;;;;;3.65;2.13;;;10.50;99.90;;;;;;4169346;28;20099;-67
2022/10/11 03:24:08;;;;;;;4.03;2.03;;;10.60;99.90;;;;;;4162953;28;20227;-67
2022/10/11 03:26:08;;;;;;;5.32;1.70;;;10.50;99.90;;;;;;4168006;28;20485;-67
2022/10/11 03:28:09;;;;;;;4.30;1.90;;;10.50;99.90;;;;;;4148218;28;20428;-66
2022/10/11 03:30:10;;;;;;;3.40;1.83;;;10.50;99.90;;;;;;4163573;28;20380;-66
2022/10/11 03:32:10;;;;;;;3.35;1.83;;;10.50;99.90;;;;;;4166824;28;20108;-66
2022/10/11 03:34:11;;;;;;;4.32;2.03;;;10.40;99.90;;;;;;4166383;28;20029;-66
2022/10/11 03:36:12;;;;;;;3.17;2.00;;;10.50;99.90;;;;;;4170076;28;20025;-67
2022/10/11 03:38:19;;;;;;;3.30;1.70;;;10.40;99.90;;;;;;4171770;28;20079;-66
2022/10/11 03:40:19;;;;;;;6.00;2.55;;;10.40;99.90;;;;;;4169614;28;20025;-66
2022/10/11 03:42:20;;;;;;;4.25;2.15;;;10.40;99.90;;;;;;4160707;28;20095;-66
2022/10/11 03:44:21;;;;;;;7.55;2.38;;;10.40;99.90;;;;;;4170108;28;20034;-67
2022/10/11 03:46:21;;;;;;;3.40;2.00;;;10.40;99.90;;;;;;4168318;28;20053;-67
2022/10/11 03:48:22;;;;;;;4.13;2.40;;;10.40;99.90;;;;;;4166466;28;20033;-67
2022/10/11 03:50:23;;;;;;;5.65;2.40;;;10.40;99.90;;;;;;4167520;28;21010;-67
2022/10/11 03:52:24;;;;;;;3.85;2.10;;;10.40;99.90;;;;;;4168833;28;20395;-67
2022/10/11 03:54:25;;;;;;;7.63;2.47;;;10.40;99.90;;;;;;4171226;28;20171;-67
2022/10/11 03:56:25;;;;;;;4.05;2.03;;;10.40;99.90;;;;;;4173373;28;20491;-67
2022/10/11 03:58:26;;;;;;;2.58;1.85;;;10.40;99.90;;;;;;4163603;28;20124;-66
2022/10/11 04:00:26;;;;;;;3.75;1.98;;;10.40;99.90;;;;;;4169713;28;20395;-67
2022/10/11 04:02:27;;;;;;;4.35;1.90;;;10.40;99.90;;;;;;4168914;28;20044;-67
2022/10/11 04:04:28;;;;;;;3.30;1.52;;;10.30;99.90;;;;;;4169210;28;20040;-67
2022/10/11 04:06:29;;;;;;;2.47;1.67;;;10.30;99.90;;;;;;4146621;28;20034;-67
2022/10/11 04:08:29;;;;;;;3.65;2.00;;;10.20;99.90;;;;;;4170623;28;20036;-67
2022/10/11 04:10:30;;;;;;;5.00;2.10;;;10.20;99.90;;;;;;4163758;28;20029;-67
2022/10/11 04:12:31;;;;;;;4.93;2.00;;;10.20;99.90;;;;;;4174931;28;20373;-67
2022/10/11 04:14:31;;;;;;;5.00;2.45;;;10.20;99.90;;;;;;4173589;28;20038;-67
2022/10/11 04:16:32;;;;;;;3.75;1.88;;;10.10;99.90;;;;;;4167537;28;20022;-67
2022/10/11 04:18:32;;;;;;;5.05;2.22;;;10.10;99.90;;;;;;4178710;28;20467;-67
2022/10/11 04:20:33;;;;;;;3.13;1.83;;;10.10;99.90;;;;;;4180562;28;20067;-67
2022/10/11 04:22:34;;;;;;;3.58;2.13;;;10.10;99.90;;;;;;4190545;28;20106;-67
2022/10/11 04:24:34;;;;;;;3.00;1.80;;;10.10;99.90;;;;;;4190354;28;20112;-67
2022/10/11 04:26:35;;;;;;;4.30;2.28;;;10.00;99.90;;;;;;4185158;28;20541;-68
2022/10/11 04:28:35;;;;;;;3.72;2.25;;;10.00;99.90;;;;;;4184278;28;20392;-67
2022/10/11 04:30:36;;;;;;;3.63;2.20;;;10.00;99.90;;;;;;4180797;28;20080;-67
2022/10/11 04:32:37;;;;;;;4.22;2.30;;;10.00;99.90;;;;;;4177041;28;20099;-67
2022/10/11 04:34:37;;;;;;;2.55;1.90;;;10.00;99.90;;;;;;4174199;28;20026;-67
2022/10/11 04:36:38;;;;;;;4.30;2.33;;;10.00;99.90;;;;;;4172836;28;20449;-67
2022/10/11 04:38:38;;;;;;;4.75;2.30;;;10.00;99.90;;;;;;4171970;28;20068;-67
2022/10/11 04:40:39;;;;;;;5.40;2.20;;;9.90;99.90;;;;;;4166077;28;20505;-65
2022/10/11 04:42:39;;;;;;;5.45;2.03;;;9.90;99.90;;;;;;4166591;28;20044;-66
2022/10/11 04:44:40;;;;;;;3.88;1.98;;;9.90;99.90;;;;;;4167654;28;20037;-66
2022/10/11 04:46:40;;;;;;;3.42;1.80;;;9.90;99.90;;;;;;4162907;28;20072;-67
2022/10/11 04:48:41;;;;;;;2.05;1.50;;;9.90;99.90;;;;;;4164651;28;20026;-67
2022/10/11 04:50:43;;;;;;;3.85;2.10;;;9.80;99.90;;;;;;4160785;28;20036;-68
2022/10/11 04:52:44;;;;;;;2.55;1.70;;;9.80;99.90;;;;;;4163943;28;20514;-68
2022/10/11 04:54:46;;;;;;;3.22;1.85;;;9.80;99.90;;;;;;4173946;28;20112;-67
2022/10/11 04:56:47;;;;;;;3.50;1.80;;;9.70;99.90;;;;;;4176495;28;20044;-67
2022/10/11 04:58:48;;;;;;;2.83;1.55;;;9.70;99.90;;;;;;4171974;28;20120;-67
2022/10/11 05:00:49;;;;;;;2.72;1.70;;;9.70;99.90;;;;;;4148934;28;20034;-67
2022/10/11 05:02:51;;;;;;;4.07;1.95;;;9.60;99.90;;;;;;4169355;28;20045;-66
2022/10/11 05:04:52;;;;;;;;;;;9.60;99.90;;;;;;4154959;28;20040;-66
2022/10/11 05:06:52;;;;;;;2.63;1.60;;;9.60;99.90;;;;;;4171360;28;20291;-67
2022/10/11 05:08:53;;;;;;;4.30;2.20;;;9.60;99.90;;;;;;4165136;28;20046;-67
2022/10/11 05:10:59;;;;;;;5.07;2.58;;;9.70;99.90;;;;;;4166526;28;20025;-67
2022/10/11 05:12:59;;;;;;;6.70;2.85;;;9.60;99.90;;;;;;4163763;28;20041;-67
2022/10/11 05:15:00;;;;;;;4.35;1.88;;;9.60;99.90;;;;;;4164337;28;20033;-67
2022/10/11 05:17:02;;;;;;;2.63;1.60;;;9.60;99.90;;;;;;4170755;28;20091;-67
2022/10/11 05:19:02;;;;;;;3.30;1.83;;;9.60;99.90;;;;;;4166640;28;20418;-67
2022/10/11 05:21:05;;;;;;;2.75;1.48;;;9.50;99.90;;;;;;4166810;28;20030;-67
2022/10/11 05:23:07;;;;;;;2.53;1.55;;;9.50;99.90;;;;;;4164600;28;20496;-67
2022/10/11 05:25:08;;;;;;;3.95;2.10;;;9.50;99.90;;;;;;4165563;28;20057;-68
2022/10/11 05:27:08;;;;;;;3.83;1.75;;;9.40;99.90;;;;;;4165685;28;20037;-67
2022/10/11 05:29:09;;;;;;;2.90;1.98;;;9.40;99.90;;;;;;4160299;28;20143;-67
2022/10/11 05:31:10;;;;;;;3.58;2.20;;;9.40;99.90;;;;;;4164451;28;20042;-67
2022/10/11 05:33:10;;;;;;;3.78;2.38;;;9.40;99.90;;;;;;4161916;28;20128;-67
2022/10/11 05:35:11;;;;;;;5.20;2.28;;;9.50;99.90;;;;;;4149359;28;20038;-66
2022/10/11 05:37:12;;;;;;;5.35;2.67;;;9.50;99.90;;;;;;4148307;28;20034;-66
2022/10/11 05:39:12;;;;;;;4.68;2.45;;;9.50;99.90;;;;;;4155000;28;20051;-67
2022/10/11 05:41:14;;;;;;;4.32;2.20;;;9.50;99.90;;;;;;4146557;28;20030;-66
2022/10/11 05:43:15;;;;;;;4.20;2.00;;;9.50;99.90;;;;;;4146881;28;20061;-67
2022/10/11 05:45:15;;;;;;;3.95;2.47;;;9.50;99.90;;;;;;4149987;28;20038;-67
2022/10/11 05:47:16;;;;;;;5.40;2.28;;;9.50;99.90;;;;;;4148707;28;20366;-67
2022/10/11 05:49:16;;;;;;;4.32;2.10;;;9.50;99.90;;;;;;4154214;28;20432;-67
2022/10/11 05:51:17;;;;;;;3.92;1.92;;;9.40;99.90;;;;;;4153209;28;20108;-67
2022/10/11 05:53:18;;;;;;;2.78;1.98;;;9.50;99.90;;;;;;4166576;28;20040;-67
2022/10/11 05:55:18;;;;;;;4.03;2.10;;;9.40;99.90;;;;;;4166930;28;20045;-68
2022/10/11 05:57:19;;;;;;;2.70;2.00;;;9.50;99.90;;;;;;4166958;28;20369;-67
2022/10/11 05:59:19;;;;;;;4.22;1.98;;;9.40;99.90;;;;;;4169012;28;20048;-69
2022/10/11 06:01:25;;;;;;;4.55;1.95;;;9.40;99.90;;;;;;4163795;28;20038;-67
2022/10/11 06:03:26;;;;;;;2.88;1.88;;;9.40;99.90;;;;;;4169404;28;20040;-68
2022/10/11 06:05:26;;;;;;;4.25;2.30;;;9.40;99.90;;;;;;4165024;28;20037;-68
2022/10/11 06:07:27;;;;;;;2.95;2.00;;;9.40;99.90;;;;;;4169599;28;20033;-68
2022/10/11 06:09:28;;;;;;;4.43;2.28;;;9.40;99.90;;;;;;4170960;28;20029;-67
2022/10/11 06:11:29;;;;;;;4.10;2.00;;;9.30;99.90;;;;;;4169341;28;20041;-67
2022/10/11 06:13:29;;;;;;;4.18;2.08;;;9.30;99.90;;;;;;4173381;28;20528;-68
2022/10/11 06:15:30;;;;;;;3.03;2.00;;;9.40;99.90;;;;;;4164692;28;20036;-68
2022/10/11 06:17:30;;;;;;;4.82;2.80;;;9.30;99.90;;;;;;4172251;28;20030;-67
2022/10/11 06:19:31;;;;;;;3.58;2.50;;;9.40;99.90;;;;;;4173126;28;20083;-67
2022/10/11 06:21:31;;;;;;;4.95;2.90;;;9.40;99.90;;;;;;4165778;28;20037;-68
2022/10/11 06:23:32;;;;;;;6.32;3.47;;;9.40;99.90;;;;;;4166893;28;20118;-67
2022/10/11 06:25:33;;;;;;;5.78;3.25;;;9.40;99.90;;;;;;4164096;28;20045;-67
2022/10/11 06:27:33;;;;;;;4.88;3.20;;;9.40;99.90;;;;;;4166600;28;20090;-67
2022/10/11 06:29:34;;;;;;;4.20;2.72;;;9.40;99.90;;;;;;4165260;28;20038;-69
2022/10/11 06:31:35;;;;;;;4.72;2.70;;;9.40;99.90;;;;;;4163840;28;20456;-69
2022/10/11 06:33:36;;;;;;;3.65;2.05;;;9.40;99.90;;;;;;4168050;28;20030;-69
2022/10/11 06:35:36;;;;;;;3.20;2.13;;;9.40;99.90;;;;;;4166815;28;20042;-68
2022/10/11 06:37:37;;;;;;;3.63;2.22;;;9.40;99.90;;;;;;4169676;28;20108;-68
2022/10/11 06:39:37;;;;;;;4.43;2.70;;;9.40;99.90;;;;;;4167816;28;20029;-69
2022/10/11 06:41:38;;;;;;;5.00;2.80;;;9.40;99.90;;;;;;4174145;28;20369;-69
2022/10/11 06:43:39;;;;;;;4.40;2.38;;;9.40;99.90;;;;;;4168676;28;20441;-68
2022/10/11 06:45:39;;;;;;;4.05;2.20;;;9.40;99.90;;;;;;4165953;28;20029;-69
2022/10/11 06:47:40;;;;;;;5.03;2.72;;;9.40;99.90;;;;;;4166006;28;20056;-68
2022/10/11 06:49:40;;;;;;;3.65;2.33;;;9.50;99.90;;;;;;4167848;28;20049;-68
2022/10/11 06:51:41;;;;;;;3.38;2.30;;;9.50;99.90;;;;;;4167837;28;20033;-68
2022/10/11 06:53:42;;;;;;;4.72;2.60;;;9.50;99.90;;;;;;4162338;28;20452;-68
2022/10/11 06:55:43;;;;;;;3.78;2.38;;;9.60;99.90;;;;;;4166171;28;20033;-69
2022/10/11 06:57:43;;;;;;;5.15;2.63;;;9.60;99.90;;;;;;4164250;28;20049;-69
2022/10/11 06:59:44;;;;;;;3.45;2.17;;;9.60;99.90;;;;;;4170174;28;20053;-66
2022/10/11 07:01:44;;;;;;;5.10;2.83;;;9.70;99.90;;;;;;4167900;28;20052;-67
2022/10/11 07:03:45;;;;;;;5.60;2.97;;;9.70;99.90;;;;;;4169463;28;20473;-68
2022/10/11 07:05:46;;;;;;;5.80;3.58;;;9.70;99.90;;;;;;4167561;28;20037;-68
2022/10/11 07:07:46;;;;;;;6.47;3.30;;;9.80;99.90;;;;;;4170601;28;20036;-68
2022/10/11 07:09:47;;;;;;;6.45;3.67;;;9.80;99.90;;;;;;4168718;28;20040;-68
2022/10/11 07:11:47;;;;;;;4.97;3.13;;;9.80;99.90;;;;;;4167818;28;20041;-69
2022/10/11 07:13:59;;;;;;;5.53;3.38;;;9.90;99.90;;;;;;4167359;28;20042;-68
2022/10/11 07:16:01;;;;;;;8.70;3.63;;;9.90;99.90;;;;;;4165887;28;20480;-69
2022/10/11 07:18:02;;;;;;;7.63;3.73;;;9.90;99.90;;;;;;4165529;28;20044;-69
2022/10/11 07:20:05;;;;;;;7.32;4.10;;;10.00;99.90;;;;;;4167102;28;20321;-70
2022/10/11 07:22:05;;;;;;;4.20;3.17;;;10.10;99.90;;;;;;4164627;28;20153;-69
2022/10/11 07:24:06;;;;;;;7.38;3.65;;;10.10;99.90;;;;;;4173740;28;20033;-69
2022/10/11 07:26:08;;;;;;;5.82;3.78;;;10.20;99.90;;;;;;4170589;28;20380;-69
2022/10/11 07:28:09;;;;;;;8.02;4.15;;;10.30;99.90;;;;;;4171739;28;20029;-68
2022/10/11 07:30:10;;;;;;;9.52;4.05;;;10.40;99.90;;;;;;4164578;28;20029;-69
2022/10/11 07:32:11;;;;;;;7.47;4.28;;;10.50;99.90;;;;;;4174759;28;20052;-68
2022/10/11 07:34:11;;;;;;;9.05;4.45;;;10.60;99.90;;;;;;4150768;28;20072;-68
2022/10/11 07:36:14;;;;;;;7.22;3.83;;;10.70;99.90;;;;;;4169202;28;20086;-68
2022/10/11 07:38:15;;;;;;;;;;;10.80;99.90;;;;;;4171212;28;20108;-68
2022/10/11 07:40:16;;;;;;;5.05;3.33;;;11.00;99.90;;;;;;4170621;28;19958;-69
2022/10/11 07:42:16;;;;;;;7.63;4.10;;;11.20;99.90;;;;;;4170752;28;20038;-69
2022/10/11 07:44:17;;;;;;;8.30;3.70;;;11.50;99.90;;;;;;4170290;28;20056;-67
2022/10/11 07:46:17;;;;;;;8.55;3.90;;;11.80;99.90;;;;;;4169042;28;20029;-68
2022/10/11 07:48:18;;;;;;;7.65;4.05;;;12.10;99.90;;;;;;4169130;28;20108;-68
2022/10/11 07:50:19;;;;;;;6.47;3.33;;;12.30;99.90;;;;;;4168302;28;20040;-69
2022/10/11 07:52:20;;;;;;;6.57;3.25;;;12.60;99.90;;;;;;4172046;28;20368;-70
2022/10/11 07:54:20;;;;;;;7.45;3.33;;;12.90;99.90;;;;;;4170002;28;20083;-69
2022/10/11 07:56:27;;;;;;;5.18;2.85;;;13.10;99.90;;;;;;4172066;28;20036;-70
2022/10/11 07:58:57;;;;;;;6.85;2.88;;;13.40;99.90;;;;;;4158457;28;20113;-70
2022/10/11 08:00:58;;;;;;;7.35;2.67;;;13.80;99.90;;;;;;4169534;28;20082;-70
2022/10/11 08:03:02;;;;;;;7.72;3.35;;;14.20;99.90;;;;;;4176067;28;20531;-71
2022/10/11 08:05:03;;;;;;;7.05;3.30;;;14.50;99.90;;;;;;4165680;28;20044;-70
2022/10/11 08:07:04;;;;;;;6.10;3.03;;;14.80;99.90;;;;;;4172195;28;20041;-71
2022/10/11 08:09:05;;;;;;;7.20;3.13;;;15.10;99.90;;;;;;4167559;28;20068;-70
2022/10/11 08:11:06;;;;;;;5.15;2.65;;;15.40;99.90;;;;;;4168177;28;20033;-71
2022/10/11 08:13:06;;;;;;;6.25;3.03;;;15.70;99.90;;;;;;4170297;28;20108;-71
2022/10/11 08:15:07;;;;;;;5.57;2.70;;;15.90;99.90;;;;;;4167768;28;20037;-72
2022/10/11 08:17:08;;;;;;;5.78;2.58;;;16.20;99.90;;;;;;4171487;28;20040;-72
2022/10/11 08:19:09;;;;;;;6.55;2.92;;;16.50;99.90;;;;;;4153608;28;20045;-72
2022/10/11 08:21:13;;;;;;;4.40;2.28;;;16.60;99.90;;;;;;4172275;28;20123;-72
2022/10/11 08:23:15;;;;;;;4.18;2.20;;;16.90;99.90;;;;;;4172417;28;20045;-72
2022/10/11 08:25:16;;;;;;;3.80;2.30;;;16.90;99.90;;;;;;4174298;28;20094;-73
2022/10/11 08:27:17;;;;;;;7.75;2.30;;;17.00;99.90;;;;;;4174793;28;20556;-72
2022/10/11 08:29:17;;;;;;;6.30;2.50;;;17.00;99.90;;;;;;4172435;28;20405;-72
2022/10/11 08:31:18;;;;;;;5.32;2.58;;;17.10;99.90;;;;;;4174308;28;20449;-72
2022/10/11 08:33:20;;;;;;;5.60;2.30;;;17.00;99.90;;;;;;4169628;28;20061;-72
2022/10/11 08:35:21;;;;;;;6.88;2.78;;;17.00;99.90;;;;;;4168933;28;20042;-73
2022/10/11 08:37:22;;;;;;;4.72;2.42;;;17.00;99.90;;;;;;4170556;28;20059;-70
2022/10/11 08:39:22;;;;;;;7.18;2.60;;;17.10;99.90;;;;;;4146814;28;20478;-70
2022/10/11 08:41:46;;;;;;;4.95;2.40;;;17.10;99.90;;;;;;4166820;28;20046;-70
2022/10/11 08:44:03;;;;;;;5.70;2.13;;;17.10;99.90;;;;;;4168360;28;20037;-71
2022/10/11 08:46:06;;;;;;;5.28;2.65;;;17.10;99.90;;;;;;4167638;28;20033;-69
2022/10/11 08:48:24;;;;;;;6.30;2.50;;;17.10;99.90;;;;;;4172780;28;20041;-70
2022/10/11 08:50:25;;;;;;;4.95;2.53;;;17.10;99.90;;;;;;4167669;28;20048;-70
2022/10/11 08:52:43;;;;;;;6.22;2.80;;;17.10;99.90;;;;;;4169448;28;20061;-70
2022/10/11 08:54:55;;;;;;;5.70;2.60;;;17.10;99.90;;;;;;4166177;28;20053;-70
2022/10/11 08:56:56;;;;;;;5.75;2.15;;;17.10;99.90;;;;;;4169086;28;20116;-70
2022/10/11 08:59:03;;;;;;;6.07;2.55;;;17.10;99.90;;;;;;4185229;28;20021;-70
2022/10/11 09:01:12;;;;;;;5.43;2.58;;;17.10;99.90;;;;;;4169161;28;20037;-69
2022/10/11 09:03:15;;;;;;;4.82;2.40;;;17.10;99.90;;;;;;4167006;28;20053;-70
2022/10/11 09:05:17;;;;;;;3.88;2.15;;;17.10;99.90;;;;;;4168445;28;20443;-70
2022/10/11 09:07:40;;;;;;;3.80;1.80;;;17.10;99.90;;;;;;4166859;28;20038;-70
2022/10/11 09:09:59;;;;;;;8.85;2.67;;;17.20;99.90;;;;;;4162449;28;20033;-70
2022/10/11 09:12:04;;;;;;;4.43;2.20;;;17.20;99.90;;;;;;4160062;28;20034;-70
2022/10/11 09:14:16;;;;;;;3.92;2.15;;;17.20;99.90;;;;;;4167039;28;20048;-69
2022/10/11 09:16:27;;;;;;;3.85;2.00;;;17.30;99.90;;;;;;4160268;28;20087;-70
2022/10/11 09:18:56;;;;;;;6.22;2.35;;;17.30;99.90;;;;;;4166915;28;20093;-73
2022/10/11 09:21:23;;;;;;;5.55;2.50;;;17.30;99.90;;;;;;4148765;28;20033;-72
2022/10/11 09:23:50;;;;;;;5.10;1.95;;;17.40;99.90;;;;;;4167672;28;20057;-73
2022/10/11 09:26:29;;;;;;;5.55;2.00;;;17.40;99.90;;;;;;4170579;28;20559;-73
2022/10/11 09:28:54;;;;;;;8.93;2.28;;;17.50;99.90;;;;;;4139086;28;20664;-72
2022/10/11 09:30:56;;;;;;;5.78;2.20;;;17.50;99.90;;;;;;4166670;28;20035;-73
2022/10/11 09:33:43;;;;;;;4.82;2.15;;;17.50;99.90;;;;;;4168737;28;20040;-72
2022/10/11 09:35:50;;;;;;;5.18;2.15;;;17.60;99.90;;;;;;4161404;28;20570;-70
2022/10/11 09:38:03;;;;;;;4.28;1.70;;;17.60;99.90;;;;;;4174375;28;20040;-70
2022/10/11 09:40:09;;;;;;;;;;;17.60;99.90;;;;;;4158563;28;20429;-69
2022/10/11 09:42:11;;;;;;;4.82;2.00;;;17.60;99.90;;;;;;4163804;28;19909;-73
2022/10/11 09:44:23;;;;;;;7.05;2.20;;;17.60;99.90;;;;;;4161797;28;20069;-72
2022/10/11 09:46:35;;;;;;;10.07;2.92;;;17.60;99.90;;;;;;4170236;28;20033;-73
2022/10/11 09:48:40;;;;;;;7.13;2.22;;;17.70;99.90;;;;;;4140508;28;20393;-72
2022/10/11 09:50:42;;;;;;;6.72;2.40;;;17.70;99.90;;;;;;4157364;28;20427;-73
2022/10/11 09:52:55;;;;;;;6.70;1.83;;;17.70;99.90;;;;;;4142475;28;20104;-73
2022/10/11 09:55:00;;;;;;;5.68;2.17;;;17.70;99.90;;;;;;4149073;28;20569;-72
2022/10/11 09:57:01;;;;;;;7.07;2.40;;;17.70;99.90;;;;;;4145693;28;20076;-73
2022/10/11 09:59:19;;;;;;;5.05;2.05;;;17.80;99.90;;;;;;4155517;28;20061;-73
2022/10/11 10:01:25;;;;;;;4.40;1.90;;;17.80;99.90;;;;;;4167786;28;20038;-73
2022/10/11 10:03:53;;;;;;;6.75;2.10;;;17.90;99.90;;;;;;4169146;28;20039;-73
2022/10/11 10:06:05;;;;;;;4.95;2.05;;;17.90;99.90;;;;;;4164802;28;20435;-72
2022/10/11 10:08:08;;;;;;;5.45;1.85;;;17.90;99.90;;;;;;4163570;28;20037;-72
2022/10/11 10:10:32;;;;;;;4.18;1.80;;;17.90;99.90;;;;;;4158956;28;20485;-75
2022/10/11 10:12:33;;;;;;;5.13;1.95;;;17.90;99.90;;;;;;4155898;28;20025;-70
2022/10/11 10:14:34;;;;;;;4.40;1.75;;;17.90;99.90;;;;;;4166270;28;20503;-69
2022/10/11 10:16:36;;;;;;;4.70;1.67;;;17.90;99.90;;;;;;4149530;28;20026;-70
2022/10/11 10:18:52;;;;;;;5.07;1.77;;;17.90;99.90;;;;;;4163454;28;20028;-71
2022/10/11 10:20:55;;;;;;;5.38;2.10;;;17.90;99.90;;;;;;4150935;28;20052;-70
2022/10/11 10:22:57;;;;;;;5.32;1.83;;;17.90;99.90;;;;;;4144065;28;20048;-71
2022/10/11 10:25:01;;;;;;;5.20;2.03;;;17.90;99.90;;;;;;4163508;28;20473;-71
2022/10/11 10:27:15;;;;;;;5.22;1.58;;;18.00;99.90;;;;;;4163876;28;20067;-71
2022/10/11 10:29:17;;;;;;;4.53;1.85;;;18.00;99.90;;;;;;4163498;28;20025;-71
2022/10/11 10:31:24;;;;;;;5.90;2.20;;;18.00;99.90;;;;;;4144923;28;20026;-71
2022/10/11 10:33:31;;;;;;;5.93;1.95;;;18.00;99.90;;;;;;4154885;28;20041;-72
2022/10/11 10:35:32;;;;;;;6.15;2.03;;;18.00;99.90;;;;;;4159056;28;20038;-72
2022/10/11 10:37:44;;;;;;;6.03;2.10;;;18.10;99.90;;;;;;4161498;28;20037;-71
2022/10/11 10:40:00;;;;;;;3.40;1.67;;;18.00;99.90;;;;;;4161336;28;20075;-71
2022/10/11 10:42:03;;;;;;;3.92;1.42;;;18.00;99.90;;;;;;4173115;28;20596;-71
2022/10/11 10:44:08;;;;;;;6.38;1.90;;;18.00;99.90;;;;;;4156419;28;20463;-70
2022/10/11 10:46:46;;;;;;;4.00;1.80;;;18.00;99.90;;;;;;4169492;28;20037;-71
2022/10/11 10:49:06;;;;;;;4.60;1.63;;;18.00;99.90;;;;;;4169184;28;20119;-72
2022/10/11 10:51:39;;;;;;;4.55;1.63;;;17.90;99.90;;;;;;4147080;28;20038;-71
2022/10/11 10:53:44;;;;;;;3.33;1.58;;;17.90;99.90;;;;;;4137783;28;20029;-71
2022/10/11 10:55:50;;;;;;;2.15;1.40;;;17.90;99.90;;;;;;4162920;28;20053;-72